< < Back
Terminal Aerodrome Forecast


Current Version              Previous Versions:   1  2  3  4  5  6  7  8  9  

Terminal Aerodrome Forecast

727
FTUS44 KOHX 042139 AAE
TAFCSV
TAF AMD
KCSV 042139Z 0422/0518 22006KT P6SM VCSH FEW017 SCT025 BKN050
      TEMPO 0422/0502 BKN020
     FM050600 VRB04KT 2SM SHRA BR OVC007
     FM051500 20003KT P6SM VCTS OVC015CB=

Latest METAR

284
SAUS70 KWBC 050000 RRC
MTRCSV
METAR KCSV 042353Z AUTO 00000KT 10SM CLR 23/19 A3005 RMK AO2 SLP157
T02330194 10250 20233 55002


USA.gov is the U.S. government's official web portal to all federal, state and local government web resources and services.